Time;durP1;ratioP1;P1;durP2;ratioP2;P2;SDS_P1;SDS_P2;PMS_P1;PMS_P2;Temp;Humidity;BMP_temperature;BMP_pressure;BME280_temperature;BME280_humidity;BME280_pressure;Samples;Min_cycle;Max_cycle;Signal;HPM_P1;HPM_P2
2021/12/05 00:20:50;;;;;;;21.02;10.63;;;;;;;;;;5054161;28;20191;-69
2021/12/05 00:23:22;;;;;;;14.20;10.30;;;;;;;;;;5054273;28;20193;-69
2021/12/05 00:25:52;;;;;;;20.05;8.80;;;;;;;;;;5053876;28;20202;-68
2021/12/05 00:31:20;;;;;;;19.05;10.00;;;;;;;;;;5053795;28;20201;-68
2021/12/05 00:34:06;;;;;;;17.80;8.75;;;;;;;;;;5054333;28;20645;-68
2021/12/05 00:39:38;;;;;;;14.45;8.50;;;;;;;;;;5053742;28;20187;-69
2021/12/05 00:42:46;;;;;;;11.20;7.75;;;;;;;;;;5053568;28;20185;-68
2021/12/05 00:48:22;;;;;;;13.55;8.85;;;;;;;;;;5053423;28;20255;-69
2021/12/05 00:51:25;;;;;;;11.82;7.75;;;;;;;;;;5054012;28;20250;-68
2021/12/05 00:56:52;;;;;;;17.48;7.80;;;;;;;;;;5053127;28;20284;-68
2021/12/05 01:02:18;;;;;;;17.50;8.15;;;;;;;;;;5036088;28;20529;-68
2021/12/05 01:07:52;;;;;;;15.35;6.90;;;;;;;;;;5053505;28;20184;-68
2021/12/05 01:10:32;;;;;;;14.82;8.57;;;;;;;;;;5053311;28;20630;-68
2021/12/05 01:13:25;;;;;;;15.10;8.70;;;;;;;;;;5053695;28;20576;-68
2021/12/05 01:15:52;;;;;;;14.18;7.95;;;;;;;;;;5053970;28;20192;-68
2021/12/05 01:18:20;;;;;;;20.38;8.15;;;;;;;;;;5053467;28;20199;-68
2021/12/05 01:20:54;;;;;;;12.45;7.50;;;;;;;;;;5056501;28;20238;-70
2021/12/05 01:23:29;;;;;;;14.68;7.72;;;;;;;;;;5057574;28;20183;-68
2021/12/05 01:26:02;;;;;;;13.23;7.18;;;;;;;;;;5057666;28;20203;-68
2021/12/05 01:28:42;;;;;;;10.88;6.68;;;;;;;;;;5057133;28;20204;-68
2021/12/05 01:31:20;;;;;;;19.73;8.68;;;;;;;;;;5057166;28;20186;-68
2021/12/05 01:33:56;;;;;;;11.63;7.75;;;;;;;;;;5057190;28;20214;-68
2021/12/05 01:36:31;;;;;;;13.00;7.07;;;;;;;;;;5057475;28;20187;-68
2021/12/05 01:39:09;;;;;;;19.20;8.10;;;;;;;;;;5057819;28;20187;-68
2021/12/05 01:47:52;;;;;;;23.75;6.30;;;;;;;;;;5018683;28;20201;-68
2021/12/05 01:50:49;;;;;;;14.60;6.85;;;;;;;;;;5056703;28;20200;-68
2021/12/05 01:56:39;;;;;;;13.68;5.97;;;;;;;;;;5015299;28;20560;-68
2021/12/05 02:02:18;;;;;;;11.25;5.90;;;;;;;;;;5055396;28;20197;-69
2021/12/05 02:16:05;;;;;;;22.80;6.80;;;;;;;;;;5018051;28;20193;-68
2021/12/05 02:30:03;;;;;;;10.55;4.40;;;;;;;;;;5056245;28;20211;-68
2021/12/05 02:41:12;;;;;;;17.38;5.50;;;;;;;;;;5055622;28;20192;-68
2021/12/05 02:43:43;;;;;;;6.25;4.53;;;;;;;;;;5056540;28;20519;-68
2021/12/05 02:46:13;;;;;;;12.60;5.53;;;;;;;;;;5056291;28;20188;-68
2021/12/05 02:48:40;;;;;;;11.63;5.50;;;;;;;;;;5055847;28;20216;-68
2021/12/05 02:51:09;;;;;;;11.75;5.97;;;;;;;;;;5055872;28;20286;-68
2021/12/05 02:53:42;;;;;;;13.25;4.60;;;;;;;;;;5055776;28;20197;-68
2021/12/05 02:56:10;;;;;;;12.73;4.90;;;;;;;;;;5055545;28;20276;-68
2021/12/05 02:58:43;;;;;;;10.98;4.25;;;;;;;;;;5055349;28;20661;-68
2021/12/05 03:01:20;;;;;;;12.68;4.40;;;;;;;;;;5055925;28;20316;-68
2021/12/05 03:03:48;;;;;;;9.15;4.65;;;;;;;;;;5055634;28;20250;-68
2021/12/05 03:06:20;;;;;;;9.90;5.18;;;;;;;;;;5055638;28;20199;-68
2021/12/05 03:08:50;;;;;;;8.25;4.45;;;;;;;;;;5056136;28;20223;-68
2021/12/05 03:11:17;;;;;;;9.20;4.57;;;;;;;;;;5055877;28;20794;-68
2021/12/05 03:13:45;;;;;;;13.32;5.13;;;;;;;;;;5056297;28;20287;-68
2021/12/05 03:16:13;;;;;;;9.57;4.00;;;;;;;;;;5055656;28;20234;-68
2021/12/05 03:18:41;;;;;;;14.38;6.05;;;;;;;;;;5055348;28;20196;-68
2021/12/05 03:21:08;;;;;;;9.20;3.50;;;;;;;;;;5055222;28;20682;-68
2021/12/05 03:23:36;;;;;;;10.07;4.30;;;;;;;;;;5055287;28;20227;-68
2021/12/05 03:26:05;;;;;;;14.93;6.25;;;;;;;;;;5055193;28;20282;-68
2021/12/05 03:28:33;;;;;;;15.43;4.63;;;;;;;;;;5055131;28;20256;-68
2021/12/05 03:31:00;;;;;;;12.65;4.65;;;;;;;;;;5055111;28;20201;-68
2021/12/05 03:33:28;;;;;;;7.28;4.05;;;;;;;;;;5055097;28;20287;-68
2021/12/05 03:35:55;;;;;;;18.70;4.53;;;;;;;;;;5054939;28;20233;-68
2021/12/05 03:38:23;;;;;;;15.95;6.22;;;;;;;;;;5054881;28;20294;-68
2021/12/05 03:40:50;;;;;;;15.23;7.10;;;;;;;;;;5054944;28;20295;-68
2021/12/05 03:43:19;;;;;;;11.07;4.35;;;;;;;;;;5053754;28;20286;-68
2021/12/05 03:45:48;;;;;;;9.73;4.10;;;;;;;;;;5055294;28;20238;-68
2021/12/05 03:48:16;;;;;;;11.70;4.60;;;;;;;;;;5054342;28;20237;-68
2021/12/05 03:50:44;;;;;;;14.98;4.85;;;;;;;;;;5054713;28;20286;-68
2021/12/05 03:53:12;;;;;;;20.00;5.05;;;;;;;;;;5054726;28;20199;-69
2021/12/05 03:55:40;;;;;;;11.07;3.65;;;;;;;;;;5054672;28;20284;-69
2021/12/05 03:58:07;;;;;;;13.68;3.80;;;;;;;;;;5054577;28;20289;-69
2021/12/05 04:00:38;;;;;;;9.15;4.50;;;;;;;;;;5054526;28;20299;-68
2021/12/05 04:03:06;;;;;;;14.75;4.35;;;;;;;;;;5054509;28;20263;-68
2021/12/05 04:05:34;;;;;;;10.23;4.43;;;;;;;;;;5054905;28;20547;-68
2021/12/05 04:08:02;;;;;;;11.30;4.75;;;;;;;;;;5054259;28;20195;-68
2021/12/05 04:10:30;;;;;;;11.07;4.68;;;;;;;;;;5055111;28;20291;-68
2021/12/05 04:12:57;;;;;;;7.78;4.90;;;;;;;;;;5054224;28;20199;-68
2021/12/05 04:15:25;;;;;;;11.32;3.80;;;;;;;;;;5053875;28;20295;-69
2021/12/05 04:17:54;;;;;;;11.95;3.92;;;;;;;;;;5054431;28;20191;-68
2021/12/05 04:20:21;;;;;;;9.18;4.78;;;;;;;;;;5053811;28;20207;-68
2021/12/05 04:22:49;;;;;;;12.95;4.95;;;;;;;;;;5053786;28;20285;-68
2021/12/05 04:25:17;;;;;;;7.82;4.07;;;;;;;;;;5053642;28;20282;-68
2021/12/05 04:27:46;;;;;;;5.95;3.83;;;;;;;;;;5054023;28;20202;-68
2021/12/05 04:30:14;;;;;;;12.40;4.72;;;;;;;;;;5053690;28;20682;-68
2021/12/05 04:32:41;;;;;;;11.57;4.75;;;;;;;;;;5053997;28;20202;-68
2021/12/05 04:35:11;;;;;;;10.57;4.72;;;;;;;;;;5053779;28;20745;-68
2021/12/05 04:37:38;;;;;;;16.95;4.53;;;;;;;;;;5054049;28;20197;-68
2021/12/05 04:40:07;;;;;;;8.80;4.80;;;;;;;;;;5053823;28;20288;-68
2021/12/05 04:42:34;;;;;;;13.18;4.38;;;;;;;;;;5053474;28;20689;-68
2021/12/05 04:45:01;;;;;;;11.13;4.00;;;;;;;;;;5053719;28;20340;-69
2021/12/05 04:47:29;;;;;;;10.50;4.53;;;;;;;;;;5053700;28;20297;-68
2021/12/05 04:49:56;;;;;;;10.77;4.70;;;;;;;;;;5053643;28;20613;-68
2021/12/05 04:52:25;;;;;;;6.65;3.95;;;;;;;;;;5053560;28;20203;-67
2021/12/05 04:54:52;;;;;;;6.88;4.68;;;;;;;;;;5053594;28;20196;-68
2021/12/05 04:57:19;;;;;;;9.48;3.60;;;;;;;;;;5053399;28;20293;-68
2021/12/05 04:59:50;;;;;;;6.40;4.00;;;;;;;;;;5053854;28;20283;-68
2021/12/05 05:02:18;;;;;;;7.68;3.70;;;;;;;;;;5053573;28;20184;-67
2021/12/05 05:04:48;;;;;;;10.88;3.45;;;;;;;;;;5053385;28;20185;-69
2021/12/05 05:07:20;;;;;;;12.48;3.50;;;;;;;;;;5053654;28;20206;-68
2021/12/05 05:09:49;;;;;;;8.02;3.10;;;;;;;;;;5053911;28;20271;-68
2021/12/05 05:12:16;;;;;;;11.15;3.55;;;;;;;;;;5053315;28;20203;-68
2021/12/05 05:14:43;;;;;;;8.80;3.97;;;;;;;;;;5053575;28;20664;-68
2021/12/05 05:17:11;;;;;;;6.93;3.30;;;;;;;;;;5052999;28;20278;-68
2021/12/05 05:19:40;;;;;;;6.18;3.25;;;;;;;;;;5053005;28;20285;-68
2021/12/05 05:22:18;;;;;;;12.02;3.33;;;;;;;;;;5053227;28;20683;-68
2021/12/05 05:30:35;;;;;;;15.57;3.55;;;;;;;;;;5051113;28;20236;-68
2021/12/05 05:41:57;;;;;;;6.57;3.45;;;;;;;;;;5073593;28;20266;-68
2021/12/05 05:44:54;;;;;;;8.57;3.65;;;;;;;;;;5072693;28;20312;-68
2021/12/05 05:47:29;;;;;;;10.15;3.13;;;;;;;;;;5072784;28;20196;-69
2021/12/05 05:49:58;;;;;;;7.80;3.13;;;;;;;;;;5072779;28;20297;-69
2021/12/05 05:52:26;;;;;;;8.95;4.00;;;;;;;;;;5073059;28;20227;-69
2021/12/05 05:54:55;;;;;;;4.72;2.95;;;;;;;;;;5073097;28;20203;-69
2021/12/05 05:57:26;;;;;;;17.23;4.55;;;;;;;;;;5073328;28;20231;-69
2021/12/05 06:00:01;;;;;;;13.60;3.90;;;;;;;;;;5073162;28;20579;-69
2021/12/05 06:05:14;;;;;;;5.07;2.60;;;;;;;;;;5073114;28;20234;-69
2021/12/05 06:07:45;;;;;;;15.20;5.85;;;;;;;;;;5075650;28;20259;-69
2021/12/05 06:10:13;;;;;;;6.97;3.10;;;;;;;;;;5076646;28;20213;-69
2021/12/05 06:12:42;;;;;;;12.00;3.60;;;;;;;;;;5076546;28;20236;-69
2021/12/05 06:15:12;;;;;;;10.20;3.50;;;;;;;;;;5076760;28;20222;-69
2021/12/05 06:17:40;;;;;;;17.52;4.53;;;;;;;;;;5076700;28;20184;-69
2021/12/05 06:20:08;;;;;;;6.40;3.22;;;;;;;;;;5076688;28;20298;-69
2021/12/05 06:22:35;;;;;;;9.23;4.47;;;;;;;;;;5076397;28;20218;-69
2021/12/05 06:25:03;;;;;;;4.72;3.63;;;;;;;;;;5076496;28;20195;-69
2021/12/05 06:27:30;;;;;;;8.20;3.50;;;;;;;;;;5075986;28;20231;-69
2021/12/05 06:30:06;;;;;;;6.82;3.58;;;;;;;;;;5075878;28;20219;-69
2021/12/05 06:41:19;;;;;;;6.88;3.45;;;;;;;;;;5004201;28;20215;-69
2021/12/05 06:46:34;;;;;;;13.40;4.57;;;;;;;;;;5075992;28;20201;-69
2021/12/05 06:49:03;;;;;;;7.57;3.40;;;;;;;;;;5075860;28;20578;-70
2021/12/05 06:51:30;;;;;;;9.63;4.50;;;;;;;;;;5075644;28;20292;-69
2021/12/05 06:53:59;;;;;;;17.30;6.07;;;;;;;;;;5075494;28;20197;-70
2021/12/05 06:56:27;;;;;;;6.18;3.35;;;;;;;;;;5076145;28;20196;-69
2021/12/05 06:58:55;;;;;;;7.43;3.70;;;;;;;;;;5075769;28;20289;-69
2021/12/05 07:01:22;;;;;;;9.75;3.70;;;;;;;;;;5075963;28;20197;-69
2021/12/05 07:03:50;;;;;;;13.35;3.60;;;;;;;;;;5075322;28;20277;-69
2021/12/05 07:06:22;;;;;;;13.77;3.88;;;;;;;;;;5075611;28;20287;-69
2021/12/05 07:08:53;;;;;;;7.85;3.55;;;;;;;;;;5075188;28;20187;-69
2021/12/05 07:11:25;;;;;;;4.53;2.85;;;;;;;;;;5075812;28;20184;-68
2021/12/05 07:16:41;;;;;;;10.85;4.25;;;;;;;;;;5064396;28;20199;-69
2021/12/05 07:19:23;;;;;;;10.77;3.50;;;;;;;;;;5075781;28;20639;-69
2021/12/05 07:21:55;;;;;;;8.73;4.05;;;;;;;;;;5074786;28;20607;-69
2021/12/05 07:24:41;;;;;;;11.63;4.22;;;;;;;;;;5075207;28;20185;-69
2021/12/05 07:41:04;;;;;;;8.10;3.78;;;;;;;;;;5074623;28;20227;-69
2021/12/05 07:43:37;;;;;;;17.15;3.92;;;;;;;;;;5075391;28;20538;-69
2021/12/05 07:46:06;;;;;;;6.40;3.20;;;;;;;;;;5074564;28;20228;-69
2021/12/05 07:48:36;;;;;;;9.50;3.45;;;;;;;;;;5074647;28;20228;-70
2021/12/05 07:51:09;;;;;;;8.63;3.65;;;;;;;;;;5074064;28;20271;-69
2021/12/05 07:53:42;;;;;;;10.05;3.42;;;;;;;;;;5074763;28;20188;-69
2021/12/05 07:56:14;;;;;;;7.78;4.10;;;;;;;;;;5074204;28;20194;-69
2021/12/05 08:15:17;;;;;;;5.25;3.65;;;;;;;;;;5073736;28;20203;-69
2021/12/05 08:17:51;;;;;;;5.88;2.67;;;;;;;;;;5074170;28;20184;-68
2021/12/05 08:20:19;;;;;;;6.22;3.00;;;;;;;;;;5074308;28;20645;-68
2021/12/05 08:22:46;;;;;;;6.18;3.25;;;;;;;;;;5073770;28;20203;-69
2021/12/05 08:25:15;;;;;;;9.20;3.92;;;;;;;;;;5074270;28;20292;-68
2021/12/05 08:27:47;;;;;;;7.85;3.25;;;;;;;;;;5074249;28;20222;-68
2021/12/05 08:30:22;;;;;;;9.80;3.75;;;;;;;;;;5073350;28;20304;-68
2021/12/05 08:33:09;;;;;;;9.35;3.85;;;;;;;;;;5073726;28;20195;-68
2021/12/05 08:36:08;;;;;;;5.82;3.00;;;;;;;;;;5073497;28;20652;-69
2021/12/05 08:41:51;;;;;;;5.03;2.42;;;;;;;;;;5073772;28;20196;-70
2021/12/05 08:45:07;;;;;;;7.63;3.50;;;;;;;;;;5073719;28;20184;-69
2021/12/05 09:21:25;;;;;;;8.68;3.05;;;;;;;;;;5073669;28;20191;-71
2021/12/05 09:50:54;;;;;;;4.68;2.80;;;;;;;;;;5073253;28;20245;-68
2021/12/05 10:02:51;;;;;;;8.20;2.83;;;;;;;;;;5076268;28;20239;-68
2021/12/05 10:08:34;;;;;;;7.93;2.97;;;;;;;;;;5050398;28;20209;-68
2021/12/05 10:16:42;;;;;;;9.45;2.70;;;;;;;;;;5063018;28;20283;-69
2021/12/05 10:38:31;;;;;;;5.70;3.05;;;;;;;;;;5077259;28;20275;-70
2021/12/05 10:41:05;;;;;;;4.35;2.85;;;;;;;;;;5076660;28;20198;-69
2021/12/05 10:43:33;;;;;;;5.50;2.83;;;;;;;;;;5076452;28;20185;-69
2021/12/05 10:46:05;;;;;;;3.08;2.33;;;;;;;;;;5075724;28;20208;-70
2021/12/05 10:48:33;;;;;;;8.80;3.25;;;;;;;;;;5076268;28;20224;-69
2021/12/05 10:51:01;;;;;;;4.25;2.10;;;;;;;;;;5076003;28;20314;-69
2021/12/05 10:53:32;;;;;;;5.40;2.72;;;;;;;;;;5074422;28;20717;-69
2021/12/05 10:56:01;;;;;;;3.55;2.53;;;;;;;;;;5075350;28;20184;-69
2021/12/05 10:58:33;;;;;;;11.52;2.60;;;;;;;;;;5075726;28;20204;-69
2021/12/05 11:01:06;;;;;;;3.67;2.00;;;;;;;;;;5075884;28;20718;-69
2021/12/05 11:03:33;;;;;;;5.45;2.45;;;;;;;;;;5075047;28;20286;-69
2021/12/05 11:06:00;;;;;;;4.70;3.00;;;;;;;;;;5076065;28;20255;-69
2021/12/05 11:08:37;;;;;;;5.70;3.42;;;;;;;;;;5075501;28;20197;-69
2021/12/05 11:11:09;;;;;;;6.65;3.08;;;;;;;;;;5075200;28;20298;-69
2021/12/05 11:13:37;;;;;;;5.63;2.97;;;;;;;;;;5075210;28;20617;-70
2021/12/05 11:16:05;;;;;;;7.35;3.47;;;;;;;;;;5075807;28;20208;-68
2021/12/05 11:18:41;;;;;;;7.03;3.17;;;;;;;;;;5075181;28;20243;-70
2021/12/05 11:21:30;;;;;;;10.30;3.17;;;;;;;;;;5075310;28;20206;-70
2021/12/05 11:24:06;;;;;;;6.88;3.08;;;;;;;;;;5075182;28;20599;-70
2021/12/05 11:26:34;;;;;;;8.75;3.30;;;;;;;;;;5075141;28;20279;-70
2021/12/05 11:29:01;;;;;;;6.65;2.60;;;;;;;;;;5074842;28;20240;-70
2021/12/05 11:31:30;;;;;;;7.55;2.70;;;;;;;;;;5074562;28;20304;-70
2021/12/05 11:33:57;;;;;;;7.35;3.05;;;;;;;;;;5075236;28;20234;-70
2021/12/05 11:36:25;;;;;;;3.92;2.95;;;;;;;;;;5075097;28;20196;-69
2021/12/05 11:38:52;;;;;;;4.03;3.00;;;;;;;;;;5074732;28;20687;-71
2021/12/05 11:41:22;;;;;;;4.18;2.65;;;;;;;;;;5074970;28;20293;-69
2021/12/05 11:43:52;;;;;;;8.57;2.80;;;;;;;;;;5075190;28;20226;-69
2021/12/05 11:46:21;;;;;;;6.38;2.70;;;;;;;;;;5075451;28;20194;-69
2021/12/05 11:48:49;;;;;;;7.68;3.30;;;;;;;;;;5074390;28;20239;-72
2021/12/05 11:51:23;;;;;;;6.07;3.75;;;;;;;;;;5074279;28;20228;-72
2021/12/05 11:53:52;;;;;;;5.10;2.75;;;;;;;;;;5075111;28;20248;-70
2021/12/05 11:56:22;;;;;;;3.25;2.40;;;;;;;;;;5074304;28;20191;-70
2021/12/05 11:59:16;;;;;;;5.13;2.97;;;;;;;;;;5075082;28;20228;-70
2021/12/05 12:01:46;;;;;;;5.30;2.65;;;;;;;;;;5039041;28;20596;-70
2021/12/05 12:04:14;;;;;;;5.93;3.85;;;;;;;;;;5073772;28;20271;-71
2021/12/05 12:06:42;;;;;;;10.63;4.45;;;;;;;;;;5074287;28;20512;-70
2021/12/05 12:09:09;;;;;;;4.40;3.03;;;;;;;;;;5074051;28;20242;-70
2021/12/05 12:11:38;;;;;;;4.18;3.78;;;;;;;;;;5074319;28;20345;-70
2021/12/05 12:14:05;;;;;;;5.55;2.55;;;;;;;;;;5074212;28;20286;-70
2021/12/05 12:16:34;;;;;;;8.55;2.83;;;;;;;;;;5074120;28;20288;-70
2021/12/05 12:19:02;;;;;;;3.70;3.00;;;;;;;;;;5074210;28;20197;-71
2021/12/05 12:21:37;;;;;;;6.28;2.60;;;;;;;;;;5073989;28;20203;-71
2021/12/05 12:24:05;;;;;;;4.25;2.40;;;;;;;;;;5073804;28;20188;-71
2021/12/05 12:26:33;;;;;;;5.45;3.25;;;;;;;;;;5073625;28;20277;-71
2021/12/05 12:29:02;;;;;;;5.43;3.38;;;;;;;;;;5073890;28;20715;-70
2021/12/05 12:31:34;;;;;;;4.32;3.20;;;;;;;;;;5073415;28;20699;-70
2021/12/05 12:34:02;;;;;;;5.70;3.15;;;;;;;;;;5073310;28;20197;-70
2021/12/05 12:36:34;;;;;;;4.05;2.90;;;;;;;;;;5073652;28;20204;-70
2021/12/05 12:39:04;;;;;;;10.45;4.25;;;;;;;;;;5073764;28;20300;-69
2021/12/05 12:41:32;;;;;;;4.38;3.83;;;;;;;;;;5073998;28;20203;-70
2021/12/05 12:44:01;;;;;;;4.03;3.00;;;;;;;;;;5073330;28;20291;-70
2021/12/05 12:46:32;;;;;;;4.47;3.58;;;;;;;;;;5073339;28;20200;-70
2021/12/05 12:49:01;;;;;;;4.15;3.50;;;;;;;;;;5073530;28;20235;-70
2021/12/05 12:51:34;;;;;;;3.60;3.30;;;;;;;;;;5072425;28;20307;-70
2021/12/05 12:54:02;;;;;;;4.97;3.10;;;;;;;;;;5073409;28;20266;-70
2021/12/05 12:56:31;;;;;;;9.93;3.17;;;;;;;;;;5073164;28;20299;-69
2021/12/05 12:59:00;;;;;;;6.85;3.08;;;;;;;;;;5073452;28;20231;-70
2021/12/05 13:01:40;;;;;;;4.20;3.47;;;;;;;;;;5073876;28;20210;-69
2021/12/05 13:04:32;;;;;;;3.38;3.10;;;;;;;;;;5073768;28;20225;-70
2021/12/05 13:09:57;;;;;;;7.38;3.10;;;;;;;;;;5073315;28;20222;-70
2021/12/05 13:10:09;;;;;;;10.07;3.40;;;;;;;;;;5072784;28;20196;-70
2021/12/05 13:13:03;;;;;;;5.43;3.17;;;;;;;;;;5073416;28;20695;-70
2021/12/05 13:15:35;;;;;;;5.97;3.17;;;;;;;;;;5037804;28;20296;-70
2021/12/05 13:18:05;;;;;;;2.88;2.50;;;;;;;;;;5073374;28;20243;-70
2021/12/05 13:20:52;;;;;;;3.72;3.10;;;;;;;;;;5073597;28;20194;-70
2021/12/05 13:23:20;;;;;;;7.93;3.88;;;;;;;;;;5073639;28;20191;-69
2021/12/05 13:26:05;;;;;;;3.95;3.25;;;;;;;;;;5072767;28;20202;-70
2021/12/05 13:28:34;;;;;;;4.22;3.28;;;;;;;;;;5073323;28;20230;-69
2021/12/05 13:31:02;;;;;;;4.50;3.40;;;;;;;;;;5072983;28;20259;-70
2021/12/05 13:33:33;;;;;;;3.50;3.13;;;;;;;;;;5073236;28;20199;-70
2021/12/05 13:36:21;;;;;;;3.95;3.13;;;;;;;;;;5072946;28;20222;-70
2021/12/05 13:38:48;;;;;;;2.90;2.60;;;;;;;;;;5073108;28;20231;-70
2021/12/05 13:41:17;;;;;;;4.90;3.20;;;;;;;;;;5073296;28;20232;-70
2021/12/05 13:43:54;;;;;;;4.30;3.20;;;;;;;;;;5072931;28;20195;-70
2021/12/05 13:46:37;;;;;;;3.67;2.95;;;;;;;;;;5073172;28;20226;-70
2021/12/05 13:49:24;;;;;;;9.60;4.97;;;;;;;;;;5071254;28;20287;-70
2021/12/05 13:51:53;;;;;;;2.97;2.42;;;;;;;;;;5072697;28;20299;-71
2021/12/05 13:54:24;;;;;;;4.38;2.50;;;;;;;;;;5072965;28;20283;-70
2021/12/05 13:56:51;;;;;;;5.30;2.83;;;;;;;;;;5072977;28;20186;-71
2021/12/05 13:59:26;;;;;;;5.13;3.28;;;;;;;;;;5072526;28;20238;-70
2021/12/05 14:01:54;;;;;;;3.20;2.88;;;;;;;;;;5073191;28;20192;-71
2021/12/05 14:04:25;;;;;;;7.70;3.55;;;;;;;;;;5072210;28;20263;-70
2021/12/05 14:07:01;;;;;;;3.60;2.90;;;;;;;;;;5073038;28;20229;-70
2021/12/05 14:09:33;;;;;;;3.95;3.10;;;;;;;;;;5072977;28;20185;-71
2021/12/05 14:12:02;;;;;;;3.15;2.75;;;;;;;;;;5072383;28;20311;-70
2021/12/05 14:14:30;;;;;;;4.60;3.08;;;;;;;;;;5072369;28;20200;-71
2021/12/05 14:16:59;;;;;;;5.05;3.63;;;;;;;;;;5072455;28;20197;-71
2021/12/05 14:19:29;;;;;;;3.33;3.03;;;;;;;;;;5072683;28;20292;-71
2021/12/05 14:21:57;;;;;;;15.32;3.65;;;;;;;;;;5072857;28;20655;-71
2021/12/05 14:24:28;;;;;;;3.90;3.53;;;;;;;;;;5072604;28;20299;-71
2021/12/05 14:26:57;;;;;;;8.55;5.68;;;;;;;;;;5072934;28;20285;-70
2021/12/05 14:29:26;;;;;;;9.90;5.00;;;;;;;;;;5076329;28;20228;-72
2021/12/05 14:31:54;;;;;;;8.32;4.85;;;;;;;;;;5076201;28;20302;-71
2021/12/05 14:34:23;;;;;;;8.50;4.90;;;;;;;;;;5076759;28;20664;-71
2021/12/05 14:36:51;;;;;;;10.23;6.00;;;;;;;;;;5075723;28;20250;-71
2021/12/05 14:39:21;;;;;;;14.75;5.32;;;;;;;;;;5076565;28;20235;-70
2021/12/05 14:41:51;;;;;;;14.20;7.13;;;;;;;;;;5076294;28;20261;-71
2021/12/05 14:44:20;;;;;;;6.85;4.65;;;;;;;;;;5076194;28;20231;-72
2021/12/05 14:46:49;;;;;;;6.68;3.95;;;;;;;;;;5075587;28;20738;-70
2021/12/05 14:49:17;;;;;;;4.80;3.90;;;;;;;;;;5076102;28;20204;-70
2021/12/05 14:51:45;;;;;;;4.90;3.85;;;;;;;;;;5076022;28;20259;-70
2021/12/05 14:54:18;;;;;;;5.15;3.60;;;;;;;;;;5075440;28;20201;-70
2021/12/05 14:56:46;;;;;;;4.30;3.70;;;;;;;;;;5075828;28;20221;-70
2021/12/05 14:59:15;;;;;;;5.68;4.30;;;;;;;;;;5075695;28;20394;-70
2021/12/05 15:01:47;;;;;;;9.52;4.22;;;;;;;;;;5075628;28;20255;-70
2021/12/05 15:04:14;;;;;;;5.82;4.13;;;;;;;;;;5076235;28;20224;-70
2021/12/05 15:06:43;;;;;;;4.25;3.85;;;;;;;;;;5075489;28;20291;-70
2021/12/05 15:09:17;;;;;;;4.47;3.60;;;;;;;;;;5075423;28;20578;-69
2021/12/05 15:11:49;;;;;;;5.57;3.85;;;;;;;;;;5075855;28;20296;-69
2021/12/05 15:14:18;;;;;;;9.63;3.75;;;;;;;;;;5075174;28;20185;-69
2021/12/05 15:16:51;;;;;;;4.63;4.18;;;;;;;;;;5075118;28;20206;-69
2021/12/05 15:19:20;;;;;;;5.85;4.22;;;;;;;;;;5076004;28;20185;-70
2021/12/05 15:21:47;;;;;;;5.25;3.92;;;;;;;;;;5075322;28;20201;-70
2021/12/05 15:24:15;;;;;;;5.68;4.82;;;;;;;;;;5074925;28;20204;-70
2021/12/05 15:26:42;;;;;;;4.53;4.10;;;;;;;;;;5074471;28;20193;-70
2021/12/05 15:29:10;;;;;;;7.32;4.40;;;;;;;;;;5075053;28;20618;-69
2021/12/05 15:31:41;;;;;;;11.18;5.50;;;;;;;;;;5074665;28;20309;-70
2021/12/05 15:34:25;;;;;;;5.75;4.65;;;;;;;;;;5075219;28;20287;-69
2021/12/05 15:36:53;;;;;;;9.10;4.90;;;;;;;;;;5075267;28;20243;-70
2021/12/05 15:39:23;;;;;;;11.48;4.85;;;;;;;;;;5075126;28;20212;-69
2021/12/05 15:41:51;;;;;;;5.93;4.75;;;;;;;;;;5074582;28;20311;-70
2021/12/05 15:44:29;;;;;;;8.63;5.00;;;;;;;;;;5075175;28;20235;-70
2021/12/05 15:47:03;;;;;;;7.40;4.80;;;;;;;;;;5075173;28;20706;-69
2021/12/05 15:49:41;;;;;;;8.48;5.18;;;;;;;;;;5074698;28;20193;-70
2021/12/05 15:52:09;;;;;;;9.52;5.20;;;;;;;;;;5074193;28;20300;-70
2021/12/05 15:54:39;;;;;;;17.75;6.05;;;;;;;;;;5074285;28;20240;-70
2021/12/05 15:57:10;;;;;;;11.23;5.38;;;;;;;;;;5074030;28;20713;-70
2021/12/05 15:59:40;;;;;;;7.07;5.15;;;;;;;;;;5074176;28;20191;-70
2021/12/05 16:02:10;;;;;;;35.40;21.60;;;;;;;;;;5074798;28;20207;-70
2021/12/05 16:04:38;;;;;;;13.70;6.05;;;;;;;;;;5074278;28;20628;-70
2021/12/05 16:07:08;;;;;;;10.45;6.95;;;;;;;;;;5074405;28;20196;-70
2021/12/05 16:09:36;;;;;;;12.77;6.90;;;;;;;;;;5074527;28;20608;-70
2021/12/05 16:12:07;;;;;;;7.28;5.80;;;;;;;;;;5073800;28;20255;-70
2021/12/05 16:14:36;;;;;;;7.55;5.80;;;;;;;;;;5074412;28;20211;-70
2021/12/05 16:17:15;;;;;;;11.75;7.10;;;;;;;;;;5074284;28;20228;-70
2021/12/05 16:19:57;;;;;;;12.45;6.07;;;;;;;;;;5074284;28;20242;-71
2021/12/05 16:22:24;;;;;;;12.85;7.53;;;;;;;;;;5073751;28;20235;-71
2021/12/05 16:24:51;;;;;;;13.27;7.03;;;;;;;;;;5074044;28;20200;-71
2021/12/05 16:27:18;;;;;;;13.77;8.23;;;;;;;;;;5073793;28;20198;-71
2021/12/05 16:29:46;;;;;;;16.73;7.95;;;;;;;;;;5073987;28;20234;-70
2021/12/05 16:32:14;;;;;;;9.68;7.65;;;;;;;;;;5073387;28;20275;-70
2021/12/05 16:34:46;;;;;;;7.80;6.28;;;;;;;;;;5073856;28;20560;-70
2021/12/05 16:37:14;;;;;;;9.73;6.25;;;;;;;;;;5073714;28;20280;-71
2021/12/05 16:39:42;;;;;;;8.35;6.90;;;;;;;;;;5073550;28;20205;-72
2021/12/05 16:42:12;;;;;;;7.55;6.75;;;;;;;;;;5073525;28;20227;-70
2021/12/05 16:44:41;;;;;;;7.22;6.35;;;;;;;;;;5073780;28;20264;-70
2021/12/05 16:47:11;;;;;;;14.32;6.30;;;;;;;;;;5074029;28;20194;-70
2021/12/05 16:49:41;;;;;;;11.02;7.45;;;;;;;;;;5073585;28;20243;-70
2021/12/05 16:52:10;;;;;;;16.27;8.05;;;;;;;;;;5073045;28;20617;-70
2021/12/05 16:54:43;;;;;;;7.93;7.03;;;;;;;;;;5073375;28;20197;-70
2021/12/05 16:57:12;;;;;;;11.02;7.45;;;;;;;;;;5073991;28;20649;-70
2021/12/05 16:59:40;;;;;;;12.25;7.78;;;;;;;;;;5074211;28;20208;-70
2021/12/05 17:02:10;;;;;;;8.57;7.18;;;;;;;;;;5073735;28;20199;-70
2021/12/05 17:04:45;;;;;;;11.57;7.20;;;;;;;;;;5073210;28;20238;-70
2021/12/05 17:07:15;;;;;;;9.32;7.60;;;;;;;;;;5073273;28;20195;-70
2021/12/05 17:09:43;;;;;;;9.25;6.57;;;;;;;;;;5073143;28;20298;-70
2021/12/05 17:12:26;;;;;;;11.68;7.75;;;;;;;;;;5073166;28;20216;-70
2021/12/05 17:14:53;;;;;;;10.93;7.90;;;;;;;;;;5074150;28;20184;-70
2021/12/05 17:17:32;;;;;;;10.43;7.00;;;;;;;;;;5073368;28;20289;-70
2021/12/05 17:20:18;;;;;;;10.05;7.15;;;;;;;;;;5073986;28;20190;-70
2021/12/05 17:22:51;;;;;;;13.15;7.70;;;;;;;;;;5073173;28;20187;-70
2021/12/05 17:25:26;;;;;;;10.38;7.68;;;;;;;;;;5073541;28;20607;-70
2021/12/05 17:27:54;;;;;;;10.13;8.13;;;;;;;;;;5073126;28;20219;-70
2021/12/05 17:30:21;;;;;;;16.02;8.50;;;;;;;;;;5073615;28;20226;-70
2021/12/05 17:32:48;;;;;;;15.18;10.88;;;;;;;;;;5073794;28;20309;-69
2021/12/05 17:35:17;;;;;;;13.82;7.82;;;;;;;;;;5073333;28;20289;-70
2021/12/05 17:37:45;;;;;;;11.70;7.53;;;;;;;;;;5073362;28;20285;-69
2021/12/05 17:40:13;;;;;;;14.05;8.35;;;;;;;;;;5073296;28;20207;-69
2021/12/05 17:42:41;;;;;;;8.90;7.55;;;;;;;;;;5073316;28;20258;-69
2021/12/05 17:45:09;;;;;;;12.07;7.00;;;;;;;;;;5073487;28;20538;-70
2021/12/05 17:47:37;;;;;;;9.50;7.53;;;;;;;;;;5072921;28;20195;-69
2021/12/05 17:50:06;;;;;;;9.93;7.90;;;;;;;;;;5072926;28;20363;-69
2021/12/05 17:52:35;;;;;;;11.60;7.95;;;;;;;;;;5072749;28;20217;-70
2021/12/05 17:55:06;;;;;;;12.73;9.27;;;;;;;;;;5073110;28;20196;-69
2021/12/05 17:57:38;;;;;;;16.73;11.20;;;;;;;;;;5072877;28;20663;-69
2021/12/05 18:00:15;;;;;;;11.45;9.00;;;;;;;;;;5073662;28;20185;-69
2021/12/05 18:02:44;;;;;;;10.32;8.23;;;;;;;;;;5074130;28;20231;-70
2021/12/05 18:05:13;;;;;;;13.23;8.38;;;;;;;;;;5077134;28;20179;-69
2021/12/05 18:07:42;;;;;;;13.15;8.05;;;;;;;;;;5077208;28;20251;-70
2021/12/05 18:10:10;;;;;;;12.27;8.02;;;;;;;;;;5076405;28;20211;-69
2021/12/05 18:12:38;;;;;;;12.15;7.88;;;;;;;;;;5076216;28;20276;-69
2021/12/05 18:15:07;;;;;;;15.88;9.38;;;;;;;;;;5076303;28;20196;-69
2021/12/05 18:17:36;;;;;;;12.50;8.48;;;;;;;;;;5077196;28;20235;-70
2021/12/05 18:20:03;;;;;;;13.63;8.45;;;;;;;;;;5076272;28;20231;-70
2021/12/05 18:22:32;;;;;;;11.15;7.70;;;;;;;;;;5076521;28;20194;-70
2021/12/05 18:25:00;;;;;;;11.77;8.00;;;;;;;;;;5076424;28;20291;-70
2021/12/05 18:27:28;;;;;;;11.98;7.22;;;;;;;;;;5076266;28;20195;-69
2021/12/05 18:29:56;;;;;;;14.40;7.28;;;;;;;;;;5076148;28;20306;-69
2021/12/05 18:32:23;;;;;;;61.53;42.67;;;;;;;;;;5076021;28;20275;-70
2021/12/05 18:34:51;;;;;;;16.60;11.55;;;;;;;;;;5076354;28;20193;-70
2021/12/05 18:37:18;;;;;;;11.73;7.05;;;;;;;;;;5075957;28;20285;-70
2021/12/05 18:39:50;;;;;;;10.10;7.50;;;;;;;;;;5076208;28;20561;-70
2021/12/05 18:42:20;;;;;;;13.65;7.07;;;;;;;;;;5076338;28;20648;-70
2021/12/05 18:44:54;;;;;;;11.82;8.38;;;;;;;;;;5075933;28;20198;-70
2021/12/05 18:47:24;;;;;;;12.77;8.23;;;;;;;;;;5076452;28;20278;-69
2021/12/05 18:49:51;;;;;;;10.68;7.90;;;;;;;;;;5076054;28;20253;-70
2021/12/05 18:52:19;;;;;;;14.95;9.90;;;;;;;;;;5075632;28;20255;-70
2021/12/05 18:54:46;;;;;;;16.70;11.23;;;;;;;;;;5076506;28;20245;-70
2021/12/05 18:57:20;;;;;;;11.65;8.15;;;;;;;;;;5076195;28;20200;-69
2021/12/05 18:59:59;;;;;;;13.77;9.25;;;;;;;;;;5075851;28;20188;-70
2021/12/05 19:05:18;;;;;;;190.60;117.43;;;;;;;;;;5075339;28;20314;-69
2021/12/05 19:08:01;;;;;;;70.00;50.40;;;;;;;;;;5057290;28;20198;-71